Time;durP1;ratioP1;P1;durP2;ratioP2;P2;SDS_P1;SDS_P2;PMS_P1;PMS_P2;Temp;Humidity;BMP_temperature;BMP_pressure;BME280_temperature;BME280_humidity;BME280_pressure;Samples;Min_cycle;Max_cycle;Signal;HPM_P1;HPM_P2
2022/09/29 00:00:38;;;;;;;0.77;0.77;;;7.30;99.90;;;;;;5010710;28;20037;-40
2022/09/29 00:03:04;;;;;;;1.17;1.10;;;7.20;99.90;;;;;;5008967;28;20033;-38
2022/09/29 00:05:30;;;;;;;1.58;0.98;;;7.20;99.90;;;;;;5012424;28;20406;-36
2022/09/29 00:07:56;;;;;;;1.00;1.00;;;7.10;99.90;;;;;;5008662;28;20037;-41
2022/09/29 00:10:22;;;;;;;1.10;1.10;;;7.00;99.90;;;;;;5011414;28;20049;-38
2022/09/29 00:12:48;;;;;;;3.83;1.00;;;7.10;99.90;;;;;;5011428;28;20029;-36
2022/09/29 00:15:14;;;;;;;1.00;1.00;;;7.10;99.90;;;;;;5009944;28;20091;-38
2022/09/29 00:17:39;;;;;;;0.90;0.90;;;7.10;99.90;;;;;;5009458;28;20431;-38
2022/09/29 00:20:05;;;;;;;4.75;1.30;;;7.00;99.90;;;;;;5013530;28;20144;-41
2022/09/29 00:22:31;;;;;;;1.00;1.00;;;6.90;99.90;;;;;;5012021;28;20069;-38
2022/09/29 00:24:57;;;;;;;2.00;1.35;;;6.80;99.90;;;;;;5016244;28;20125;-39
2022/09/29 00:27:22;;;;;;;1.20;1.20;;;6.70;99.90;;;;;;5011336;28;20037;-40
2022/09/29 00:29:48;;;;;;;1.85;1.05;;;6.60;99.90;;;;;;5013260;28;20033;-41
2022/09/29 00:32:14;;;;;;;1.08;0.98;;;6.70;99.90;;;;;;5013538;28;20041;-40
2022/09/29 00:34:40;;;;;;;1.40;1.10;;;6.70;99.90;;;;;;5012689;28;20394;-37
2022/09/29 00:37:05;;;;;;;3.38;1.20;;;6.80;99.90;;;;;;5013362;28;20399;-41
2022/09/29 00:39:31;;;;;;;1.35;1.25;;;7.00;99.90;;;;;;5017517;28;20039;-39
2022/09/29 00:41:57;;;;;;;1.30;1.20;;;7.00;99.90;;;;;;5015598;28;20453;-34
2022/09/29 00:44:22;;;;;;;1.70;1.35;;;7.00;99.90;;;;;;5014986;28;20033;-39
2022/09/29 00:46:59;;;;;;;1.25;1.20;;;7.10;99.90;;;;;;5015916;28;20449;-36
2022/09/29 00:49:33;;;;;;;1.10;1.10;;;7.10;99.90;;;;;;5018151;28;20392;-38
2022/09/29 00:52:09;;;;;;;1.42;1.30;;;7.20;99.90;;;;;;5017379;28;20100;-39
2022/09/29 00:54:59;;;;;;;1.10;1.00;;;7.30;99.90;;;;;;5017107;28;20037;-40
2022/09/29 00:57:38;;;;;;;4.20;1.52;;;7.30;99.90;;;;;;5015757;28;20124;-40
2022/09/29 01:00:09;;;;;;;4.55;1.35;;;7.30;99.90;;;;;;5015261;28;20275;-38
2022/09/29 01:02:45;;;;;;;2.38;1.60;;;7.40;99.90;;;;;;5022619;28;20475;-34
2022/09/29 01:05:16;;;;;;;1.58;1.48;;;7.40;99.90;;;;;;5023318;28;20025;-34
2022/09/29 01:07:43;;;;;;;1.38;1.30;;;7.40;99.90;;;;;;5023098;28;20033;-34
2022/09/29 01:10:10;;;;;;;1.05;1.05;;;7.40;99.90;;;;;;5024005;28;20096;-38
2022/09/29 01:12:35;;;;;;;1.65;1.55;;;7.40;99.90;;;;;;5023824;28;20067;-32
2022/09/29 01:15:01;;;;;;;1.40;1.10;;;7.30;99.90;;;;;;5019019;28;20091;-36
2022/09/29 01:17:27;;;;;;;3.00;1.70;;;7.10;99.90;;;;;;5022576;28;20590;-31
2022/09/29 01:20:01;;;;;;;3.03;1.27;;;7.00;99.90;;;;;;5024096;28;20075;-34
2022/09/29 01:22:45;;;;;;;2.05;1.40;;;7.10;99.90;;;;;;5020383;28;20036;-34
2022/09/29 01:25:28;;;;;;;1.45;1.23;;;7.10;99.90;;;;;;5021108;28;20037;-31
2022/09/29 01:28:26;;;;;;;1.60;1.50;;;7.20;99.90;;;;;;5021763;28;20064;-37
2022/09/29 01:31:21;;;;;;;1.88;1.35;;;7.20;99.90;;;;;;5022164;28;20037;-34
2022/09/29 01:34:08;;;;;;;1.35;1.30;;;7.20;99.90;;;;;;5022401;28;20095;-33
2022/09/29 01:36:56;;;;;;;1.48;1.23;;;7.30;99.90;;;;;;5020969;28;20470;-33
2022/09/29 01:39:40;;;;;;;1.27;1.17;;;7.30;99.90;;;;;;5022655;28;20094;-34
2022/09/29 01:42:15;;;;;;;1.58;1.17;;;7.40;99.90;;;;;;5022814;28;20025;-33
2022/09/29 01:45:03;;;;;;;1.25;1.15;;;7.40;99.90;;;;;;5023006;28;20061;-32
2022/09/29 01:47:41;;;;;;;1.05;0.95;;;7.30;99.90;;;;;;5019133;28;21709;-33
2022/09/29 01:50:12;;;;;;;1.20;1.10;;;7.30;99.90;;;;;;5024686;28;20513;-34
2022/09/29 01:52:48;;;;;;;1.40;1.30;;;7.30;99.90;;;;;;5021541;28;20061;-33
2022/09/29 01:55:20;;;;;;;2.63;1.20;;;7.30;99.90;;;;;;5021952;28;20337;-32
2022/09/29 01:57:54;;;;;;;3.10;1.15;;;7.30;99.90;;;;;;5023358;28;20024;-34
2022/09/29 02:00:22;;;;;;;1.67;1.20;;;7.30;99.90;;;;;;5019547;28;20089;-39
2022/09/29 02:02:57;;;;;;;1.50;1.33;;;7.30;99.90;;;;;;5020295;28;20048;-34
2022/09/29 02:05:55;;;;;;;1.30;1.20;;;7.30;99.90;;;;;;5021715;28;20042;-35
2022/09/29 02:08:58;;;;;;;1.05;1.05;;;7.40;99.90;;;;;;5022351;28;20030;-32
2022/09/29 02:11:25;;;;;;;1.40;1.30;;;7.40;99.90;;;;;;4940770;28;20524;-33
2022/09/29 02:14:14;;;;;;;1.30;1.20;;;7.40;99.90;;;;;;5008829;28;20100;-35
2022/09/29 02:16:48;;;;;;;1.45;1.35;;;7.40;99.90;;;;;;5008136;28;21075;-33
2022/09/29 02:19:21;;;;;;;1.60;1.50;;;7.40;99.90;;;;;;5022840;28;20474;-32
2022/09/29 02:21:47;;;;;;;1.67;1.40;;;7.40;99.90;;;;;;5022966;28;20041;-32
2022/09/29 02:24:13;;;;;;;1.20;1.00;;;7.40;99.90;;;;;;5023422;28;20048;-33
2022/09/29 02:26:40;;;;;;;1.15;1.05;;;7.40;99.90;;;;;;5020814;28;20030;-37
2022/09/29 02:29:07;;;;;;;1.00;1.00;;;7.40;99.90;;;;;;5022373;28;20481;-35
2022/09/29 02:31:35;;;;;;;1.13;1.05;;;7.40;99.90;;;;;;5022515;28;20578;-31
2022/09/29 02:34:02;;;;;;;1.58;1.33;;;7.40;99.90;;;;;;5023854;28;20095;-33
2022/09/29 02:36:56;;;;;;;1.92;1.50;;;7.40;99.90;;;;;;5023255;28;20034;-33
2022/09/29 02:39:55;;;;;;;1.50;1.40;;;7.40;99.90;;;;;;5021960;28;20033;-35
2022/09/29 02:42:43;;;;;;;2.83;1.50;;;7.40;99.90;;;;;;5022019;28;20021;-33
2022/09/29 02:45:26;;;;;;;2.20;1.30;;;7.40;99.90;;;;;;5023592;28;20093;-35
2022/09/29 02:48:14;;;;;;;2.63;1.60;;;7.40;99.90;;;;;;5021690;28;20037;-36
2022/09/29 02:51:01;;;;;;;1.52;1.42;;;7.40;99.90;;;;;;5020989;28;20056;-31
2022/09/29 02:53:46;;;;;;;1.17;1.15;;;7.40;99.90;;;;;;5020903;28;20112;-34
2022/09/29 02:56:23;;;;;;;1.83;1.30;;;7.40;99.90;;;;;;5020566;28;20033;-36
2022/09/29 02:59:36;;;;;;;1.63;1.40;;;7.50;99.90;;;;;;5019339;28;20034;-35
2022/09/29 03:02:02;;;;;;;2.15;1.45;;;7.50;99.90;;;;;;4942620;28;20043;-34
2022/09/29 03:04:28;;;;;;;1.83;1.73;;;7.50;99.90;;;;;;4941083;28;20024;-34
2022/09/29 03:06:54;;;;;;;1.60;1.42;;;7.50;99.90;;;;;;4981632;28;20038;-37
2022/09/29 03:09:19;;;;;;;1.80;1.50;;;7.40;99.90;;;;;;5020189;28;20203;-36
2022/09/29 03:11:46;;;;;;;1.70;1.58;;;7.40;99.90;;;;;;5021130;28;20177;-35
2022/09/29 03:14:11;;;;;;;3.70;1.42;;;7.40;99.90;;;;;;5036597;28;20026;-32
2022/09/29 03:16:37;;;;;;;1.65;1.30;;;7.30;99.90;;;;;;5020888;28;20029;-32
2022/09/29 03:19:04;;;;;;;1.40;1.30;;;7.30;99.90;;;;;;5019541;28;20069;-33
2022/09/29 03:21:30;;;;;;;1.67;1.58;;;7.30;99.90;;;;;;5021858;28;20057;-34
2022/09/29 03:23:56;;;;;;;2.10;1.40;;;7.30;99.90;;;;;;5022586;28;20033;-33
2022/09/29 03:26:22;;;;;;;2.00;1.60;;;7.30;99.90;;;;;;5024227;28;20049;-33
2022/09/29 03:28:49;;;;;;;4.40;1.63;;;7.30;99.90;;;;;;5018872;28;20040;-39
2022/09/29 03:31:14;;;;;;;1.77;1.38;;;7.20;99.90;;;;;;5020296;28;20128;-33
2022/09/29 03:33:40;;;;;;;4.15;1.83;;;7.20;99.90;;;;;;5021692;28;20151;-34
2022/09/29 03:36:07;;;;;;;1.40;1.30;;;7.20;99.90;;;;;;5020739;28;20113;-31
2022/09/29 03:38:34;;;;;;;1.80;1.60;;;7.20;99.90;;;;;;5021091;28;20083;-34
2022/09/29 03:41:00;;;;;;;1.35;1.25;;;7.10;99.90;;;;;;5019338;28;20733;-36
2022/09/29 03:43:25;;;;;;;3.30;1.38;;;7.10;99.90;;;;;;5019056;28;20030;-33
2022/09/29 03:45:53;;;;;;;2.25;1.40;;;7.10;99.90;;;;;;5023119;28;20042;-34
2022/09/29 03:48:20;;;;;;;2.17;1.30;;;7.10;99.90;;;;;;5019754;28;20041;-32
2022/09/29 03:50:48;;;;;;;1.55;1.27;;;7.10;99.90;;;;;;5019294;28;20042;-33
2022/09/29 03:53:14;;;;;;;2.83;1.42;;;7.10;99.90;;;;;;5019780;28;20029;-35
2022/09/29 03:55:44;;;;;;;1.35;1.30;;;7.10;99.90;;;;;;5019073;28;20034;-35
2022/09/29 03:58:10;;;;;;;1.63;1.40;;;7.10;99.90;;;;;;5020427;28;20033;-33
2022/09/29 04:00:35;;;;;;;1.30;1.20;;;7.00;99.90;;;;;;5019188;28;20036;-30
2022/09/29 04:03:01;;;;;;;1.33;1.20;;;6.90;99.90;;;;;;5020720;28;20026;-34
2022/09/29 04:05:28;;;;;;;1.00;0.98;;;6.80;99.90;;;;;;5020193;28;20308;-32
2022/09/29 04:07:54;;;;;;;0.80;0.80;;;6.90;99.90;;;;;;5020436;28;20026;-38
2022/09/29 04:10:20;;;;;;;1.58;0.95;;;6.90;99.90;;;;;;5020203;28;21156;-33
2022/09/29 04:12:45;;;;;;;1.20;1.10;;;6.90;99.90;;;;;;5020542;28;20281;-35
2022/09/29 04:15:11;;;;;;;3.97;1.20;;;6.90;99.90;;;;;;5018005;28;20033;-31
2022/09/29 04:17:36;;;;;;;1.40;1.23;;;6.90;99.90;;;;;;5020180;28;20730;-33
2022/09/29 04:20:02;;;;;;;1.58;1.13;;;6.70;99.90;;;;;;5016613;28;20048;-34
2022/09/29 04:22:28;;;;;;;1.23;1.10;;;6.80;99.90;;;;;;5020853;28;20030;-32
2022/09/29 04:24:54;;;;;;;1.40;1.33;;;6.80;99.90;;;;;;5018642;28;20071;-34
2022/09/29 04:27:20;;;;;;;2.70;1.42;;;6.80;99.90;;;;;;5020276;28;20033;-34
2022/09/29 04:29:46;;;;;;;1.08;0.98;;;6.80;99.90;;;;;;5030368;28;20033;-33
2022/09/29 04:32:12;;;;;;;3.03;1.20;;;6.90;99.90;;;;;;5019488;28;20204;-35
2022/09/29 04:34:37;;;;;;;1.95;1.30;;;6.90;99.90;;;;;;5021021;28;20088;-36
2022/09/29 04:37:03;;;;;;;1.45;1.20;;;6.90;99.90;;;;;;5021121;28;20371;-36
2022/09/29 04:39:29;;;;;;;1.05;0.98;;;6.80;99.90;;;;;;5018127;28;20029;-34
2022/09/29 04:41:54;;;;;;;1.00;1.00;;;6.60;99.90;;;;;;5018778;28;20124;-35
2022/09/29 04:44:21;;;;;;;0.82;0.82;;;6.50;99.90;;;;;;5018788;28;20037;-32
2022/09/29 04:46:50;;;;;;;1.00;0.90;;;6.50;99.90;;;;;;5020665;28;20037;-37
2022/09/29 04:49:19;;;;;;;1.17;1.08;;;6.60;99.90;;;;;;5019289;28;20028;-31
2022/09/29 04:51:45;;;;;;;1.20;1.20;;;6.70;99.90;;;;;;5018049;28;20168;-33
2022/09/29 04:54:11;;;;;;;4.00;2.00;;;6.80;99.90;;;;;;5020247;28;20083;-37
2022/09/29 04:56:36;;;;;;;30.45;12.98;;;6.80;99.90;;;;;;5020006;28;20037;-33
2022/09/29 04:59:03;;;;;;;28.02;10.75;;;6.90;99.90;;;;;;5019066;28;20511;-36
2022/09/29 05:01:29;;;;;;;16.58;7.68;;;6.80;99.90;;;;;;5020543;28;20037;-31
2022/09/29 05:03:54;;;;;;;13.40;6.47;;;6.90;99.90;;;;;;5021010;28;20037;-34
2022/09/29 05:06:20;;;;;;;5.90;3.38;;;6.90;99.90;;;;;;5021391;28;20037;-33
2022/09/29 05:08:46;;;;;;;4.40;2.30;;;6.80;99.90;;;;;;5019785;28;20041;-33
2022/09/29 05:11:12;;;;;;;4.65;2.00;;;6.80;99.90;;;;;;5021856;28;20117;-31
2022/09/29 05:13:37;;;;;;;2.70;1.60;;;6.80;99.90;;;;;;5021486;28;20033;-31
2022/09/29 05:16:03;;;;;;;1.60;1.20;;;6.90;99.90;;;;;;5019078;28;20117;-31
2022/09/29 05:18:30;;;;;;;1.35;1.20;;;7.00;99.90;;;;;;5022979;28;20483;-34
2022/09/29 05:20:55;;;;;;;1.30;1.20;;;7.00;99.90;;;;;;5023372;28;20064;-33
2022/09/29 05:23:21;;;;;;;1.30;1.20;;;7.00;99.90;;;;;;5022822;28;20667;-33
2022/09/29 05:25:47;;;;;;;1.73;1.63;;;7.00;99.90;;;;;;5023181;28;20430;-34
2022/09/29 05:28:14;;;;;;;5.32;2.17;;;7.00;99.90;;;;;;5020863;28;20449;-33
2022/09/29 05:30:40;;;;;;;2.45;2.17;;;7.00;99.90;;;;;;5025046;28;20038;-35
2022/09/29 05:33:06;;;;;;;4.43;2.22;;;7.00;99.90;;;;;;5027645;28;20041;-31
2022/09/29 05:35:31;;;;;;;3.53;2.10;;;7.00;99.90;;;;;;5023787;28;20041;-34
2022/09/29 05:37:57;;;;;;;2.00;1.70;;;7.00;99.90;;;;;;5026942;28;20063;-32
2022/09/29 05:40:23;;;;;;;4.07;2.03;;;7.00;99.90;;;;;;5026806;28;20072;-31
2022/09/29 05:42:50;;;;;;;2.65;1.67;;;7.00;99.90;;;;;;5026500;28;20029;-36
2022/09/29 05:45:15;;;;;;;6.20;2.38;;;7.10;99.90;;;;;;5024737;28;20059;-34
2022/09/29 05:47:42;;;;;;;2.55;2.35;;;7.10;99.90;;;;;;5019707;28;20025;-32
2022/09/29 05:50:09;;;;;;;2.05;1.85;;;7.10;99.90;;;;;;5025933;28;20039;-32
2022/09/29 05:52:34;;;;;;;4.07;2.10;;;7.10;99.90;;;;;;5020757;28;20514;-37
2022/09/29 05:55:00;;;;;;;6.22;2.00;;;7.20;99.90;;;;;;5024132;28;20029;-31
2022/09/29 05:57:25;;;;;;;2.10;1.90;;;7.10;99.90;;;;;;5022728;28;20029;-33
2022/09/29 05:59:51;;;;;;;2.50;2.03;;;7.10;99.90;;;;;;5019797;28;20156;-37
2022/09/29 06:02:17;;;;;;;2.67;2.35;;;7.10;99.90;;;;;;5020392;28;20061;-35
2022/09/29 06:04:43;;;;;;;4.30;3.53;;;7.10;99.90;;;;;;5020880;28;20026;-34
2022/09/29 06:07:08;;;;;;;3.58;2.50;;;7.10;99.90;;;;;;5022455;28;20030;-36
2022/09/29 06:09:37;;;;;;;3.58;2.72;;;7.20;99.90;;;;;;5020530;28;20033;-31
2022/09/29 06:12:03;;;;;;;3.40;3.10;;;7.30;99.90;;;;;;5022701;28;20037;-33
2022/09/29 06:14:29;;;;;;;4.55;3.08;;;7.40;99.90;;;;;;5019923;28;20505;-35
2022/09/29 06:16:54;;;;;;;3.40;2.90;;;7.40;99.90;;;;;;5026834;28;20222;-35
2022/09/29 06:19:20;;;;;;;3.50;2.80;;;7.40;99.90;;;;;;5023455;28;20763;-34
2022/09/29 06:21:46;;;;;;;2.92;2.53;;;7.40;99.90;;;;;;5019391;28;20042;-38
2022/09/29 06:24:12;;;;;;;3.97;3.10;;;7.50;99.90;;;;;;5024608;28;20412;-31
2022/09/29 06:26:37;;;;;;;4.50;3.58;;;7.50;99.90;;;;;;5020250;28;20033;-31
2022/09/29 06:29:03;;;;;;;4.30;3.42;;;7.50;99.90;;;;;;5016937;28;20368;-33
2022/09/29 06:31:30;;;;;;;4.13;3.00;;;7.60;99.90;;;;;;5023736;28;20349;-32
2022/09/29 06:34:00;;;;;;;3.78;3.30;;;7.60;99.90;;;;;;5025739;28;20025;-33
2022/09/29 06:39:22;;;;;;;5.07;3.58;;;7.70;99.90;;;;;;5025605;28;20036;-31
2022/09/29 06:41:52;;;;;;;3.80;3.35;;;7.70;99.90;;;;;;5024479;28;20722;-35
2022/09/29 06:44:23;;;;;;;3.70;3.10;;;7.70;99.90;;;;;;5024055;28;20029;-37
2022/09/29 06:46:50;;;;;;;3.78;3.10;;;7.80;99.90;;;;;;5025676;28;20168;-35
2022/09/29 06:49:16;;;;;;;6.88;4.35;;;7.80;99.90;;;;;;5025313;28;20021;-33
2022/09/29 06:51:43;;;;;;;6.57;3.50;;;7.80;99.90;;;;;;5023716;28;20040;-31
2022/09/29 06:54:19;;;;;;;4.97;3.50;;;7.80;99.90;;;;;;5025303;28;20044;-31
2022/09/29 06:56:52;;;;;;;5.78;3.78;;;7.80;99.90;;;;;;5025023;28;20121;-36
2022/09/29 06:59:18;;;;;;;3.90;3.10;;;7.90;99.90;;;;;;5027750;28;20030;-32
2022/09/29 07:01:48;;;;;;;4.47;3.28;;;8.00;99.90;;;;;;5025077;28;20036;-37
2022/09/29 07:04:14;;;;;;;4.22;3.67;;;8.00;99.90;;;;;;5028258;28;20029;-31
2022/09/29 07:06:40;;;;;;;4.10;3.35;;;8.00;99.90;;;;;;5026729;28;20441;-35
2022/09/29 07:09:05;;;;;;;6.53;3.80;;;8.00;99.90;;;;;;5028960;28;20060;-35
2022/09/29 07:11:31;;;;;;;3.78;3.35;;;8.10;99.90;;;;;;5028628;28;20045;-33
2022/09/29 07:13:57;;;;;;;4.97;4.03;;;8.10;99.90;;;;;;5025801;28;20037;-37
2022/09/29 07:16:22;;;;;;;4.85;4.13;;;8.20;99.90;;;;;;5026063;28;20029;-31
2022/09/29 07:18:48;;;;;;;4.70;3.25;;;8.20;99.90;;;;;;5027857;28;20088;-32
2022/09/29 07:21:18;;;;;;;5.03;3.70;;;8.30;99.90;;;;;;5024210;28;20037;-30
2022/09/29 07:23:45;;;;;;;4.80;3.55;;;8.30;99.90;;;;;;5026062;28;20076;-34
2022/09/29 07:26:11;;;;;;;3.75;3.13;;;8.40;99.90;;;;;;5025889;28;20040;-31
2022/09/29 07:28:38;;;;;;;5.13;3.78;;;8.50;99.90;;;;;;5025862;28;20117;-31
2022/09/29 07:31:09;;;;;;;4.13;3.38;;;8.50;99.90;;;;;;5028780;28;20116;-34
2022/09/29 07:33:35;;;;;;;4.72;3.97;;;8.50;99.90;;;;;;5028823;28;20693;-36
2022/09/29 07:36:01;;;;;;;4.85;3.67;;;8.60;99.90;;;;;;5026852;28;20136;-36
2022/09/29 07:38:27;;;;;;;4.65;3.75;;;8.60;99.90;;;;;;5026682;28;20021;-31
2022/09/29 07:40:53;;;;;;;7.35;4.78;;;8.60;99.90;;;;;;5028100;28;20045;-34
2022/09/29 07:43:19;;;;;;;4.00;3.28;;;8.70;99.90;;;;;;5029055;28;20022;-37
2022/09/29 07:45:49;;;;;;;4.18;3.70;;;8.80;99.90;;;;;;5025122;28;20155;-32
2022/09/29 07:48:15;;;;;;;4.95;3.42;;;8.70;99.90;;;;;;5026957;28;20025;-35
2022/09/29 07:50:42;;;;;;;4.15;3.70;;;8.80;99.90;;;;;;5028691;28;20041;-34
2022/09/29 07:53:08;;;;;;;5.45;3.70;;;8.90;99.90;;;;;;5026882;28;20035;-31
2022/09/29 07:55:34;;;;;;;5.32;3.30;;;8.80;99.90;;;;;;5028170;28;20116;-36
2022/09/29 07:58:00;;;;;;;5.63;4.18;;;8.90;99.90;;;;;;5027024;28;20021;-35
2022/09/29 08:00:26;;;;;;;5.63;3.65;;;9.00;99.90;;;;;;5025215;28;20479;-32
2022/09/29 08:02:52;;;;;;;7.13;3.75;;;9.00;99.90;;;;;;5024654;28;20059;-35
2022/09/29 08:05:18;;;;;;;5.20;3.42;;;9.00;99.90;;;;;;5025166;28;20029;-37
2022/09/29 08:07:43;;;;;;;4.38;3.63;;;9.00;99.90;;;;;;5025208;28;20025;-34
2022/09/29 08:10:09;;;;;;;4.78;3.95;;;9.00;99.90;;;;;;5026179;28;20032;-34
2022/09/29 08:12:35;;;;;;;5.53;4.60;;;9.10;99.90;;;;;;5025949;28;20022;-32
2022/09/29 08:15:00;;;;;;;6.03;4.10;;;9.10;99.90;;;;;;5027837;28;20037;-32
2022/09/29 08:17:26;;;;;;;5.82;4.28;;;9.10;99.90;;;;;;5026975;28;20021;-32
2022/09/29 08:19:52;;;;;;;8.25;4.57;;;9.20;99.90;;;;;;5025625;28;20053;-33
2022/09/29 08:22:17;;;;;;;7.28;4.95;;;9.20;99.90;;;;;;5026788;28;20072;-31
2022/09/29 08:24:43;;;;;;;5.97;4.63;;;9.20;99.90;;;;;;5026049;28;20089;-35
2022/09/29 08:27:08;;;;;;;5.32;4.25;;;9.20;99.90;;;;;;5027269;28;20036;-32
2022/09/29 08:29:34;;;;;;;6.18;4.40;;;9.20;99.90;;;;;;5025365;28;20041;-31
2022/09/29 08:32:00;;;;;;;6.03;4.60;;;9.30;99.90;;;;;;5025213;28;20478;-33
2022/09/29 08:34:26;;;;;;;7.50;5.03;;;9.30;99.90;;;;;;5026755;28;20033;-31
2022/09/29 08:36:52;;;;;;;8.38;5.32;;;9.30;99.90;;;;;;5024989;28;20044;-32
2022/09/29 08:39:19;;;;;;;8.23;5.10;;;9.40;99.90;;;;;;5024085;28;20037;-36
2022/09/29 08:41:59;;;;;;;8.30;5.05;;;9.40;99.90;;;;;;5026026;28;20042;-34
2022/09/29 08:44:43;;;;;;;5.57;4.55;;;9.50;99.90;;;;;;5024946;28;20121;-33
2022/09/29 08:47:15;;;;;;;6.03;5.30;;;9.50;99.90;;;;;;5026963;28;20041;-31
2022/09/29 08:50:03;;;;;;;7.50;5.07;;;9.60;99.90;;;;;;5024614;28;20443;-32
2022/09/29 08:52:32;;;;;;;;;;;9.60;99.90;;;;;;5024919;28;21660;-33
2022/09/29 08:55:22;;;;;;;5.10;4.20;;;9.80;99.90;;;;;;5027087;28;20035;-35
2022/09/29 08:57:57;;;;;;;8.35;5.00;;;9.80;99.90;;;;;;5028062;28;20060;-34
2022/09/29 09:00:48;;;;;;;7.40;5.63;;;9.90;99.90;;;;;;5026730;28;20084;-36
2022/09/29 09:03:48;;;;;;;7.15;4.95;;;9.80;99.90;;;;;;5027622;28;20721;-31
2022/09/29 09:06:35;;;;;;;6.95;4.25;;;9.90;99.90;;;;;;5031140;28;20080;-32
2022/09/29 09:09:09;;;;;;;6.07;4.82;;;9.90;99.90;;;;;;5035077;28;20033;-31
2022/09/29 09:12:02;;;;;;;7.82;4.90;;;9.90;99.90;;;;;;5030353;28;20052;-32
2022/09/29 09:14:27;;;;;;;6.20;4.38;;;9.90;99.90;;;;;;5025395;28;20084;-34
2022/09/29 09:17:18;;;;;;;6.68;4.95;;;9.80;99.90;;;;;;5031332;28;20018;-31
2022/09/29 09:20:09;;;;;;;6.63;4.60;;;9.90;99.90;;;;;;5029804;28;20029;-32
2022/09/29 09:23:13;;;;;;;5.85;4.22;;;9.90;99.90;;;;;;5038098;28;20080;-34
2022/09/29 09:25:48;;;;;;;3.90;3.50;;;10.00;99.90;;;;;;5033723;28;20038;-31
2022/09/29 09:28:29;;;;;;;5.35;3.70;;;10.10;99.90;;;;;;5036013;28;20453;-33
2022/09/29 09:31:05;;;;;;;4.22;3.03;;;10.10;99.90;;;;;;5028042;28;20037;-31
2022/09/29 09:33:36;;;;;;;4.43;3.28;;;10.10;99.90;;;;;;5039341;28;20018;-32
2022/09/29 09:36:07;;;;;;;5.60;3.70;;;10.20;99.90;;;;;;5027038;28;20345;-34
2022/09/29 09:38:57;;;;;;;4.47;3.22;;;10.30;99.90;;;;;;5029487;28;20029;-34
2022/09/29 09:41:24;;;;;;;4.05;3.05;;;10.40;99.90;;;;;;5026575;28;20029;-32
2022/09/29 09:44:04;;;;;;;4.40;3.40;;;10.50;99.90;;;;;;5024902;28;20486;-36
2022/09/29 09:46:35;;;;;;;4.28;3.38;;;10.50;99.90;;;;;;5028665;28;20087;-36
2022/09/29 09:49:13;;;;;;;3.28;2.97;;;10.50;99.90;;;;;;5024387;28;20040;-35
2022/09/29 09:51:42;;;;;;;3.30;2.80;;;10.50;99.90;;;;;;5023344;28;20030;-36
2022/09/29 09:54:44;;;;;;;3.15;2.72;;;10.40;99.90;;;;;;5026475;28;20076;-31
2022/09/29 09:57:13;;;;;;;4.10;2.85;;;10.50;99.90;;;;;;5026786;28;20686;-34
2022/09/29 09:59:47;;;;;;;7.25;4.43;;;10.50;99.90;;;;;;5027218;28;20045;-33
2022/09/29 10:02:19;;;;;;;2.70;2.50;;;10.50;99.90;;;;;;5025561;28;20100;-35
2022/09/29 10:04:49;;;;;;;2.90;2.60;;;10.50;99.90;;;;;;5024966;28;20030;-34
2022/09/29 10:07:16;;;;;;;3.30;2.50;;;10.50;99.90;;;;;;5031380;28;20049;-35
2022/09/29 10:09:42;;;;;;;1.90;1.77;;;10.60;99.90;;;;;;5026842;28;20417;-35
2022/09/29 10:12:17;;;;;;;8.15;4.03;;;10.70;99.90;;;;;;5027746;28;20145;-37
2022/09/29 10:15:11;;;;;;;4.63;2.50;;;10.80;99.90;;;;;;5028041;28;20030;-35
2022/09/29 10:17:44;;;;;;;21.67;10.70;;;10.90;99.90;;;;;;5031537;28;20033;-33
2022/09/29 10:20:10;;;;;;;27.48;12.43;;;11.00;99.90;;;;;;5027712;28;20041;-32
2022/09/29 10:22:36;;;;;;;3.75;2.65;;;11.00;99.90;;;;;;5028805;28;20086;-36
2022/09/29 10:25:19;;;;;;;2.10;1.90;;;11.10;99.90;;;;;;5028443;28;20037;-34
2022/09/29 10:27:49;;;;;;;3.00;1.55;;;11.10;99.90;;;;;;5028767;28;20026;-32
2022/09/29 10:30:32;;;;;;;1.90;0.98;;;11.30;99.90;;;;;;5026637;28;21736;-34
2022/09/29 10:33:00;;;;;;;4.60;2.47;;;11.30;99.90;;;;;;5026865;28;20051;-34
2022/09/29 10:35:34;;;;;;;12.55;5.65;;;11.50;99.90;;;;;;5028560;28;20030;-35
2022/09/29 10:38:22;;;;;;;2.30;2.10;;;11.50;99.90;;;;;;5026601;28;20034;-35
2022/09/29 10:40:58;;;;;;;;;;;11.40;99.90;;;;;;5026538;28;20499;-33
2022/09/29 10:43:35;;;;;;;1.55;1.45;;;11.30;99.90;;;;;;5029145;28;19972;-35
2022/09/29 10:46:00;;;;;;;3.60;2.50;;;11.30;99.90;;;;;;5027104;28;20025;-36
2022/09/29 10:48:26;;;;;;;2.00;1.80;;;11.30;99.90;;;;;;5025861;28;21026;-35
2022/09/29 10:50:56;;;;;;;2.83;2.05;;;11.20;99.90;;;;;;5025328;28;20037;-34
2022/09/29 10:53:35;;;;;;;1.75;1.40;;;11.20;99.90;;;;;;5027247;28;20101;-35
2022/09/29 10:56:04;;;;;;;;;;;11.20;99.90;;;;;;5032676;28;20544;-33
2022/09/29 10:58:34;;;;;;;2.53;1.83;;;11.30;99.90;;;;;;5027910;28;19913;-31
2022/09/29 11:01:16;;;;;;;1.25;1.15;;;11.40;99.90;;;;;;5025992;28;20044;-34
2022/09/29 11:04:02;;;;;;;1.30;1.20;;;11.50;99.90;;;;;;5025957;28;20017;-35
2022/09/29 11:06:31;;;;;;;2.13;1.85;;;11.50;99.90;;;;;;5025871;28;20029;-34
2022/09/29 11:09:01;;;;;;;3.03;2.55;;;11.50;99.90;;;;;;5024553;28;20064;-36
2022/09/29 11:11:28;;;;;;;1.50;1.40;;;11.60;99.90;;;;;;5026887;28;20043;-35
2022/09/29 11:13:56;;;;;;;1.60;1.50;;;11.40;99.90;;;;;;5025973;28;20390;-35
2022/09/29 11:16:31;;;;;;;1.55;1.45;;;11.30;99.90;;;;;;5021722;28;21520;-36
2022/09/29 11:19:06;;;;;;;2.17;1.90;;;11.40;99.90;;;;;;5027837;28;20010;-37
2022/09/29 11:22:05;;;;;;;1.70;1.60;;;11.30;99.90;;;;;;5026363;28;20525;-35
2022/09/29 11:24:31;;;;;;;2.03;1.40;;;11.20;99.90;;;;;;5025739;28;20025;-34
2022/09/29 11:27:25;;;;;;;1.48;1.38;;;11.20;99.90;;;;;;5029292;28;20039;-33
2022/09/29 11:30:04;;;;;;;3.17;2.25;;;11.20;99.90;;;;;;5028012;28;20038;-33
2022/09/29 11:32:36;;;;;;;1.42;1.33;;;11.20;99.90;;;;;;5025303;28;20034;-37
2022/09/29 11:35:04;;;;;;;2.00;1.88;;;11.20;99.90;;;;;;5026643;28;20273;-36
2022/09/29 11:37:58;;;;;;;3.55;1.83;;;11.10;99.90;;;;;;5026036;28;20083;-36
2022/09/29 11:40:30;;;;;;;1.73;1.63;;;11.20;99.90;;;;;;5027817;28;20029;-31
2022/09/29 11:43:12;;;;;;;3.30;2.08;;;11.10;99.90;;;;;;5026279;28;20032;-34
2022/09/29 11:45:47;;;;;;;3.10;1.98;;;11.20;99.90;;;;;;5025515;28;20471;-36
2022/09/29 11:48:25;;;;;;;1.92;1.83;;;11.20;99.90;;;;;;5022542;28;20037;-35
2022/09/29 11:50:57;;;;;;;2.28;2.08;;;11.20;99.90;;;;;;5026005;28;20121;-35
2022/09/29 11:53:44;;;;;;;2.35;2.15;;;11.30;99.90;;;;;;5026375;28;20668;-32
2022/09/29 11:56:23;;;;;;;6.13;3.97;;;11.30;99.90;;;;;;5022150;28;20398;-36
2022/09/29 11:59:18;;;;;;;1.73;1.63;;;11.40;99.90;;;;;;5026691;28;20021;-34
2022/09/29 12:01:51;;;;;;;2.13;1.83;;;11.30;99.90;;;;;;4988834;28;20340;-33
2022/09/29 12:04:36;;;;;;;1.30;1.20;;;11.30;99.90;;;;;;5026480;28;20123;-32
2022/09/29 12:07:57;;;;;;;2.65;2.45;;;11.00;99.90;;;;;;5026039;28;20100;-32
2022/09/29 12:10:43;;;;;;;8.07;5.82;;;10.90;99.90;;;;;;4980814;28;20080;-32
2022/09/29 12:13:08;;;;;;;9.75;6.40;;;11.00;99.90;;;;;;5025773;28;20568;-35
2022/09/29 12:15:48;;;;;;;3.40;2.63;;;11.00;99.90;;;;;;5024674;28;20630;-34
2022/09/29 12:18:19;;;;;;;1.60;1.42;;;11.10;99.90;;;;;;5027174;28;20250;-34
2022/09/29 12:20:48;;;;;;;1.73;1.50;;;11.10;99.90;;;;;;5024932;28;20046;-36
2022/09/29 12:23:19;;;;;;;1.80;1.60;;;11.20;99.90;;;;;;5025500;28;20029;-38
2022/09/29 12:25:59;;;;;;;5.65;3.95;;;11.10;99.90;;;;;;5024954;28;20029;-32
2022/09/29 12:28:31;;;;;;;2.35;2.15;;;11.10;99.90;;;;;;5025623;28;20147;-34
2022/09/29 12:31:02;;;;;;;2.22;1.52;;;11.30;99.90;;;;;;5025876;28;20038;-35
2022/09/29 12:33:41;;;;;;;1.80;1.70;;;11.30;99.90;;;;;;5025483;28;20086;-35
2022/09/29 12:36:43;;;;;;;1.88;1.77;;;11.40;99.90;;;;;;5032109;28;20536;-35
2022/09/29 12:39:32;;;;;;;2.38;1.90;;;11.30;99.90;;;;;;5032523;28;20025;-32
2022/09/29 12:42:20;;;;;;;2.42;1.83;;;11.30;99.90;;;;;;5011675;28;20037;-32
2022/09/29 12:44:53;;;;;;;2.05;1.52;;;11.30;99.90;;;;;;5029233;28;20045;-32
2022/09/29 12:47:42;;;;;;;1.50;1.40;;;11.30;99.90;;;;;;5032298;28;20043;-35
2022/09/29 12:50:18;;;;;;;1.20;1.10;;;11.30;99.90;;;;;;5031335;28;20050;-32
2022/09/29 12:53:08;;;;;;;1.30;1.20;;;11.20;99.90;;;;;;5030937;28;20035;-32
2022/09/29 12:55:40;;;;;;;0.95;0.93;;;11.20;99.90;;;;;;5031309;28;20038;-33
2022/09/29 12:58:13;;;;;;;3.00;1.25;;;11.30;99.90;;;;;;5032314;28;20025;-37
2022/09/29 13:00:42;;;;;;;1.08;1.08;;;11.20;99.90;;;;;;5029387;28;20310;-32
2022/09/29 13:03:33;;;;;;;1.20;1.10;;;11.30;99.90;;;;;;5030588;28;20285;-38
2022/09/29 13:06:31;;;;;;;1.23;0.95;;;11.30;99.90;;;;;;5029985;28;20037;-34
2022/09/29 13:09:08;;;;;;;1.83;1.30;;;11.30;99.90;;;;;;5005696;28;20039;-35
2022/09/29 13:11:47;;;;;;;2.95;2.05;;;11.30;99.90;;;;;;5029872;28;20542;-35
2022/09/29 13:14:29;;;;;;;1.23;1.13;;;11.40;99.90;;;;;;5031158;28;20057;-33
2022/09/29 13:17:22;;;;;;;1.05;1.00;;;11.40;99.90;;;;;;5031922;28;20030;-37
2022/09/29 13:19:59;;;;;;;1.27;1.17;;;11.50;99.90;;;;;;5033850;28;20038;-37
2022/09/29 13:23:03;;;;;;;1.10;1.10;;;11.50;99.90;;;;;;5031687;28;20071;-38
2022/09/29 13:25:59;;;;;;;1.15;1.15;;;11.50;99.90;;;;;;5029554;28;20319;-34